This is the latest recevied weather packets stored in our database for station/object KA1AL. If no packets are shown the sender has not sent any weather packets the latest 1 day(s).
| Time | Temp. | Humidity | Pressure | Rain* | Wind** | Luminosity | Snow |
|---|---|---|---|---|---|---|---|
| 1778030886 | 13.33° C | 99% | 1006.8 hPa | 0 mm | - | 0 W/m² | - |
| 1778030280 | 13.33° C | 99% | 1006 hPa | 0 mm | - | 0 W/m² | - |
| 1778029674 | 13.89° C | 99% | 1006.3 hPa | 0 mm | - | 0 W/m² | - |
| 1778029069 | 13.89° C | 99% | 1006.2 hPa | 0 mm | - | 0 W/m² | - |
| 1778028461 | 13.89° C | 99% | 1006.3 hPa | 0 mm | - | 0 W/m² | - |
| 1778028159 | 13.89° C | 99% | 1006.5 hPa | 0 mm | - | 0 W/m² | - |
| 1778026944 | 13.89° C | 99% | 1006.4 hPa | 0 mm | - | 0 W/m² | - |
| 1778026337 | 13.89° C | 99% | 1006.2 hPa | 0 mm | - | 0 W/m² | - |
| 1778026034 | 13.89° C | 99% | 1005.7 hPa | 0 mm | - | 0 W/m² | - |
| 1778025732 | 13.89° C | 99% | 1005.6 hPa | 1.78 mm | - | 0 W/m² | - |
| 1778023000 | 14.44° C | 99% | 1005.7 hPa | 3.05 mm | - | 3 W/m² | - |
| 1778021789 | 14.44° C | 99% | 1005.8 hPa | 1.78 mm | - | 7 W/m² | - |
| 1778020273 | 15° C | 99% | 1005.7 hPa | 8.89 mm | - | 2 W/m² | - |
| 1778019059 | 20.56° C | 64% | 1004.5 hPa | 0 mm | - | 3 W/m² | - |
| 1778016942 | 21.67° C | 61% | 1002.2 hPa | 0 mm | - | 90 W/m² | - |
| 1778016638 | 21.67° C | 60% | 1002.1 hPa | 0 mm | - | 127 W/m² | - |
| 1778016032 | 21.67° C | 61% | 1002 hPa | 0 mm | - | 118 W/m² | - |
| 1778011487 | 22.78° C | 57% | 1001.8 hPa | 0 mm | - | 157 W/m² | - |
| 1778010880 | 22.78° C | 57% | 1001.9 hPa | 0 mm | - | 195 W/m² | - |
| 1778009974 | 23.33° C | 56% | 1001.9 hPa | 0 mm | - | 416 W/m² | - |
| 1778009370 | 23.33° C | 56% | 1002.2 hPa | 0 mm | - | 254 W/m² | - |
| 1778009068 | 23.33° C | 56% | 1002.2 hPa | 0 mm | - | 433 W/m² | - |
| 1778008464 | 23.89° C | 56% | 1002.3 hPa | 0 mm | - | 624 W/m² | - |
| 1778007551 | 23.33° C | 56% | 1002.4 hPa | 0 mm | - | 566 W/m² | - |
| 1778004519 | 23.33° C | 55% | 1002.9 hPa | 0 mm | - | 645 W/m² | - |
* Rain latest hour (hover to see other rain measurements)
** Current wind speed in m/s (hover to see current wind gust speed)